createdAt,value
2018-07-14T00:00:06.568Z,1004.36
2018-07-14T00:01:06.565Z,1004.33
2018-07-14T00:02:06.562Z,1004.28
2018-07-14T00:03:06.560Z,1004.32
2018-07-14T00:04:06.554Z,1004.32
2018-07-14T00:05:06.551Z,1004.30
2018-07-14T00:06:06.547Z,1004.33
2018-07-14T00:07:06.544Z,1004.33
2018-07-14T00:08:06.541Z,1004.27
2018-07-14T00:09:06.536Z,1004.32
2018-07-14T00:10:06.674Z,1004.27
2018-07-14T00:11:06.530Z,1004.29
2018-07-14T00:12:06.525Z,1004.28
2018-07-14T00:13:06.521Z,1004.25
2018-07-14T00:14:06.521Z,1004.26
2018-07-14T00:15:06.515Z,1004.26
2018-07-14T00:16:06.511Z,1004.30
2018-07-14T00:17:06.507Z,1004.28
2018-07-14T00:18:06.504Z,1004.33
2018-07-14T00:19:06.502Z,1004.28
2018-07-14T00:20:06.496Z,1004.31
2018-07-14T00:21:06.492Z,1004.29
2018-07-14T00:22:06.489Z,1004.31
2018-07-14T00:23:06.485Z,1004.26
2018-07-14T00:24:06.481Z,1004.32
2018-07-14T00:25:06.477Z,1004.31
2018-07-14T00:26:06.474Z,1004.27
2018-07-14T00:27:06.471Z,1004.30
2018-07-14T00:28:06.469Z,1004.28
2018-07-14T00:29:06.462Z,1004.31
2018-07-14T00:30:06.521Z,1004.29
2018-07-14T00:31:06.457Z,1004.28
2018-07-14T00:32:06.451Z,1004.29
2018-07-14T00:33:06.448Z,1004.31
2018-07-14T00:34:06.445Z,1004.30
2018-07-14T00:35:06.441Z,1004.29
2018-07-14T00:36:06.440Z,1004.29
2018-07-14T00:37:06.432Z,1004.31
2018-07-14T00:38:06.428Z,1004.29
2018-07-14T00:39:06.431Z,1004.30
2018-07-14T00:40:06.421Z,1004.33
2018-07-14T00:41:06.422Z,1004.28
2018-07-14T00:42:06.415Z,1004.31
2018-07-14T00:43:06.410Z,1004.27
2018-07-14T00:44:06.405Z,1004.28
2018-07-14T00:45:06.402Z,1004.26
2018-07-14T00:46:06.398Z,1004.32
2018-07-14T00:47:06.395Z,1004.27
2018-07-14T00:48:06.390Z,1004.26
2018-07-14T00:49:06.386Z,1004.24
2018-07-14T00:50:06.383Z,1004.26
2018-07-14T00:51:06.379Z,1004.25
2018-07-14T00:52:06.375Z,1004.25
2018-07-14T00:53:06.375Z,1004.29
2018-07-14T00:54:06.367Z,1004.26
2018-07-14T00:55:06.363Z,1004.25
2018-07-14T00:56:06.359Z,1004.28
2018-07-14T00:57:06.360Z,1004.25
2018-07-14T00:58:06.351Z,1004.28
2018-07-14T00:59:06.348Z,1004.28
2018-07-14T01:00:06.343Z,1004.29
2018-07-14T01:01:06.339Z,1004.31
2018-07-14T01:02:06.335Z,1004.31
2018-07-14T01:03:06.332Z,1004.34
2018-07-14T01:04:06.327Z,1004.38
2018-07-14T01:05:06.323Z,1004.35
2018-07-14T01:06:06.319Z,1004.37
2018-07-14T01:07:06.320Z,1004.37
2018-07-14T01:08:06.311Z,1004.37
2018-07-14T01:09:06.307Z,1004.38
2018-07-14T01:10:06.304Z,1004.39
2018-07-14T01:11:06.299Z,1004.40
2018-07-14T01:12:06.295Z,1004.35
2018-07-14T01:13:06.290Z,1004.38
2018-07-14T01:14:06.287Z,1004.38
2018-07-14T01:15:06.289Z,1004.39
2018-07-14T01:16:06.280Z,1004.43
2018-07-14T01:17:06.274Z,1004.40
2018-07-14T01:18:06.270Z,1004.44
2018-07-14T01:19:06.267Z,1004.41
2018-07-14T01:20:06.262Z,1004.41
2018-07-14T01:21:06.258Z,1004.41
2018-07-14T01:22:06.257Z,1004.35
2018-07-14T01:23:06.250Z,1004.37
2018-07-14T01:24:06.247Z,1004.35
2018-07-14T01:25:06.241Z,1004.34
2018-07-14T01:26:06.240Z,1004.35
2018-07-14T01:27:06.233Z,1004.34
2018-07-14T01:28:06.228Z,1004.32
2018-07-14T01:29:06.224Z,1004.30
2018-07-14T01:30:06.221Z,1004.28
2018-07-14T01:31:06.218Z,1004.30
2018-07-14T01:32:06.211Z,1004.30
2018-07-14T01:33:06.210Z,1004.31
2018-07-14T01:34:06.203Z,1004.34
2018-07-14T01:35:06.201Z,1004.33
2018-07-14T01:36:06.194Z,1004.33
2018-07-14T01:37:06.190Z,1004.35
2018-07-14T01:38:06.186Z,1004.29
2018-07-14T01:39:06.182Z,1004.33
2018-07-14T01:40:06.177Z,1004.31
2018-07-14T01:41:06.174Z,1004.32
2018-07-14T01:42:06.173Z,1004.34
2018-07-14T01:43:06.165Z,1004.32
2018-07-14T01:44:06.160Z,1004.33
2018-07-14T01:45:06.156Z,1004.34
2018-07-14T01:46:06.152Z,1004.33
2018-07-14T01:47:06.148Z,1004.35
2018-07-14T01:48:06.143Z,1004.31
2018-07-14T01:49:06.139Z,1004.35
2018-07-14T01:50:06.135Z,1004.35
2018-07-14T01:51:06.132Z,1004.35
2018-07-14T01:52:06.125Z,1004.36
2018-07-14T01:53:06.121Z,1004.34
2018-07-14T01:54:06.117Z,1004.37
2018-07-14T01:55:06.113Z,1004.39
2018-07-14T01:56:06.115Z,1004.35
2018-07-14T01:57:06.104Z,1004.33
2018-07-14T01:58:06.102Z,1004.34
2018-07-14T01:59:06.095Z,1004.33
2018-07-14T02:00:06.091Z,1004.35
2018-07-14T02:01:06.086Z,1004.33
2018-07-14T02:02:06.082Z,1004.31
2018-07-14T02:03:06.078Z,1004.32
2018-07-14T02:04:06.073Z,1004.32
2018-07-14T02:05:06.072Z,1004.31
2018-07-14T02:06:06.067Z,1004.32
2018-07-14T02:07:06.062Z,1004.29
2018-07-14T02:08:06.109Z,1004.30
2018-07-14T02:09:06.051Z,1004.26
2018-07-14T02:10:06.047Z,1004.27
2018-07-14T02:11:06.043Z,1004.26
2018-07-14T02:12:06.038Z,1004.24
2018-07-14T02:13:06.034Z,1004.26
2018-07-14T02:14:06.033Z,1004.30
2018-07-14T02:15:06.029Z,1004.27
2018-07-14T02:16:06.020Z,1004.27
2018-07-14T02:17:06.018Z,1004.27
2018-07-14T02:18:06.012Z,1004.25
2018-07-14T02:19:06.008Z,1004.23
2018-07-14T02:20:06.003Z,1004.22
2018-07-14T02:21:05.999Z,1004.24
2018-07-14T02:22:05.994Z,1004.24
2018-07-14T02:23:05.989Z,1004.21
2018-07-14T02:24:05.984Z,1004.20
2018-07-14T02:25:05.981Z,1004.20
2018-07-14T02:26:05.976Z,1004.20
2018-07-14T02:27:05.975Z,1004.18
2018-07-14T02:28:05.966Z,1004.18
2018-07-14T02:29:05.964Z,1004.16
2018-07-14T02:30:05.958Z,1004.18
2018-07-14T02:31:05.953Z,1004.19
2018-07-14T02:32:05.947Z,1004.21
2018-07-14T02:33:05.944Z,1004.18
2018-07-14T02:34:05.942Z,1004.22
2018-07-14T02:35:05.938Z,1004.25
2018-07-14T02:36:05.931Z,1004.23
2018-07-14T02:37:05.925Z,1004.25
2018-07-14T02:38:05.922Z,1004.27
2018-07-14T02:39:05.917Z,1004.25
2018-07-14T02:40:05.911Z,1004.28
2018-07-14T02:41:05.906Z,1004.28
2018-07-14T02:42:05.903Z,1004.27
2018-07-14T02:43:05.898Z,1004.26
2018-07-14T02:44:05.893Z,1004.31
2018-07-14T02:45:05.891Z,1004.29
2018-07-14T02:46:05.884Z,1004.28
2018-07-14T02:47:05.879Z,1004.32
2018-07-14T02:48:05.874Z,1004.34
2018-07-14T02:49:05.869Z,1004.32
2018-07-14T02:50:05.876Z,1004.33
2018-07-14T02:51:05.861Z,1004.37
2018-07-14T02:52:05.855Z,1004.32
2018-07-14T02:53:05.851Z,1004.36
2018-07-14T02:54:05.847Z,1004.34
2018-07-14T02:55:06.045Z,1004.36
2018-07-14T02:56:05.836Z,1004.33
2018-07-14T02:57:05.832Z,1004.35
2018-07-14T02:58:05.828Z,1004.34
2018-07-14T02:59:05.824Z,1004.36
2018-07-14T03:00:05.818Z,1004.33
2018-07-14T03:01:05.813Z,1004.35
2018-07-14T03:02:05.811Z,1004.33
2018-07-14T03:03:05.804Z,1004.33
2018-07-14T03:04:05.800Z,1004.31
2018-07-14T03:05:05.799Z,1004.33
2018-07-14T03:06:05.791Z,1004.33
2018-07-14T03:07:05.785Z,1004.34
2018-07-14T03:08:05.787Z,1004.34
2018-07-14T03:09:05.779Z,1004.33
2018-07-14T03:10:05.772Z,1004.34
2018-07-14T03:11:05.768Z,1004.36
2018-07-14T03:12:05.761Z,1004.33
2018-07-14T03:13:05.757Z,1004.36
2018-07-14T03:14:05.752Z,1004.36
2018-07-14T03:15:05.748Z,1004.33
2018-07-14T03:16:05.744Z,1004.35
2018-07-14T03:17:05.739Z,1004.31
2018-07-14T03:18:05.738Z,1004.31
2018-07-14T03:19:05.733Z,1004.29
2018-07-14T03:20:05.724Z,1004.29
2018-07-14T03:21:05.719Z,1004.31
2018-07-14T03:22:05.719Z,1004.33
2018-07-14T03:23:05.710Z,1004.30
2018-07-14T03:24:05.704Z,1004.35
2018-07-14T03:25:05.702Z,1004.32
2018-07-14T03:26:05.700Z,1004.32
2018-07-14T03:27:05.690Z,1004.31
2018-07-14T03:28:05.684Z,1004.32
2018-07-14T03:29:05.683Z,1004.31
2018-07-14T03:30:05.676Z,1004.32
2018-07-14T03:31:05.672Z,1004.32
2018-07-14T03:32:05.666Z,1004.34
2018-07-14T03:33:05.664Z,1004.33
2018-07-14T03:34:05.661Z,1004.33
2018-07-14T03:35:05.655Z,1004.26
2018-07-14T03:36:05.647Z,1004.27
2018-07-14T03:37:05.642Z,1004.30
2018-07-14T03:38:05.642Z,1004.27
2018-07-14T03:39:05.637Z,1004.28
2018-07-14T03:40:05.627Z,1004.24
2018-07-14T03:41:05.825Z,1004.28
2018-07-14T03:42:05.631Z,1004.27
2018-07-14T03:43:05.613Z,1004.29
2018-07-14T03:44:05.607Z,1004.28
2018-07-14T03:45:05.605Z,1004.26
2018-07-14T03:46:05.604Z,1004.30
2018-07-14T03:47:05.600Z,1004.29
2018-07-14T03:48:05.588Z,1004.29
2018-07-14T03:49:05.585Z,1004.26
2018-07-14T03:50:05.586Z,1004.28
2018-07-14T03:51:05.578Z,1004.28
2018-07-14T03:52:05.568Z,1004.28
2018-07-14T03:53:05.570Z,1004.28
2018-07-14T03:54:05.560Z,1004.32
2018-07-14T03:55:05.554Z,1004.31
2018-07-14T03:56:05.551Z,1004.31
2018-07-14T03:57:05.546Z,1004.27
2018-07-14T03:58:05.539Z,1004.29
2018-07-14T03:59:05.569Z,1004.30
2018-07-14T04:00:05.528Z,1004.28
2018-07-14T04:01:05.523Z,1004.27
2018-07-14T04:02:05.519Z,1004.29
2018-07-14T04:03:05.515Z,1004.25
2018-07-14T04:04:05.509Z,1004.26
2018-07-14T04:05:05.504Z,1004.23
2018-07-14T04:06:05.502Z,1004.22
2018-07-14T04:07:05.499Z,1004.24
2018-07-14T04:08:05.497Z,1004.23
2018-07-14T04:09:05.484Z,1004.22
2018-07-14T04:10:05.480Z,1004.26
2018-07-14T04:11:05.477Z,1004.27
2018-07-14T04:12:05.469Z,1004.29
2018-07-14T04:13:05.464Z,1004.31
2018-07-14T04:14:05.462Z,1004.36
2018-07-14T04:15:05.458Z,1004.32
2018-07-14T04:16:05.453Z,1004.34
2018-07-14T04:17:05.445Z,1004.37
2018-07-14T04:18:05.440Z,1004.39
2018-07-14T04:19:05.439Z,1004.37
2018-07-14T04:20:05.429Z,1004.38
2018-07-14T04:21:05.425Z,1004.39
2018-07-14T04:22:05.420Z,1004.43
2018-07-14T04:23:05.417Z,1004.38
2018-07-14T04:24:05.413Z,1004.42
2018-07-14T04:25:05.406Z,1004.40
2018-07-14T04:26:05.401Z,1004.41
2018-07-14T04:27:05.397Z,1004.39
2018-07-14T04:28:05.394Z,1004.43
2018-07-14T04:29:05.389Z,1004.40
2018-07-14T04:30:05.386Z,1004.43
2018-07-14T04:31:05.378Z,1004.41
2018-07-14T04:32:05.379Z,1004.41
2018-07-14T04:33:05.368Z,1004.41
2018-07-14T04:34:05.367Z,1004.35
2018-07-14T04:35:05.359Z,1004.40
2018-07-14T04:36:05.354Z,1004.39
2018-07-14T04:37:05.349Z,1004.38
2018-07-14T04:38:05.345Z,1004.38
2018-07-14T04:39:05.343Z,1004.38
2018-07-14T04:40:05.334Z,1004.36
2018-07-14T04:41:05.333Z,1004.42
2018-07-14T04:42:05.326Z,1004.40
2018-07-14T04:43:05.523Z,1004.43
2018-07-14T04:44:05.320Z,1004.44
2018-07-14T04:45:05.313Z,1004.41
2018-07-14T04:46:05.306Z,1004.43
2018-07-14T04:47:05.302Z,1004.44
2018-07-14T04:48:05.296Z,1004.43
2018-07-14T04:49:05.291Z,1004.42
2018-07-14T04:50:05.286Z,1004.41
2018-07-14T04:51:05.284Z,1004.40
2018-07-14T04:52:05.277Z,1004.37
2018-07-14T04:53:05.280Z,1004.43
2018-07-14T04:54:05.267Z,1004.44
2018-07-14T04:55:05.263Z,1004.40
2018-07-14T04:56:05.257Z,1004.40
2018-07-14T04:57:05.253Z,1004.42
2018-07-14T04:58:05.248Z,1004.43
2018-07-14T04:59:05.248Z,1004.43
2018-07-14T05:00:05.240Z,1004.41
2018-07-14T05:01:05.234Z,1004.42
2018-07-14T05:02:05.230Z,1004.42
2018-07-14T05:03:05.226Z,1004.40
2018-07-14T05:04:05.219Z,1004.43
2018-07-14T05:05:05.216Z,1004.44
2018-07-14T05:06:05.211Z,1004.45
2018-07-14T05:07:05.207Z,1004.45
2018-07-14T05:08:05.202Z,1004.46
2018-07-14T05:09:05.197Z,1004.45
2018-07-14T05:10:05.197Z,1004.42
2018-07-14T05:11:05.190Z,1004.40
2018-07-14T05:12:05.184Z,1004.38
2018-07-14T05:13:05.181Z,1004.39
2018-07-14T05:14:05.176Z,1004.39
2018-07-14T05:15:05.373Z,1004.39
2018-07-14T05:16:05.166Z,1004.41
2018-07-14T05:17:05.162Z,1004.39
2018-07-14T05:18:05.157Z,1004.42
2018-07-14T05:19:05.154Z,1004.37
2018-07-14T05:20:05.148Z,1004.42
2018-07-14T05:21:05.144Z,1004.41
2018-07-14T05:22:05.142Z,1004.41
2018-07-14T05:23:05.136Z,1004.40
2018-07-14T05:24:05.135Z,1004.44
2018-07-14T05:25:05.129Z,1004.43
2018-07-14T05:26:05.128Z,1004.43
2018-07-14T05:27:05.119Z,1004.44
2018-07-14T05:28:05.114Z,1004.44
2018-07-14T05:29:05.110Z,1004.43
2018-07-14T05:30:05.107Z,1004.46
2018-07-14T05:31:05.103Z,1004.42
2018-07-14T05:32:05.103Z,1004.44
2018-07-14T05:33:05.095Z,1004.44
2018-07-14T05:34:05.091Z,1004.43
2018-07-14T05:35:05.088Z,1004.41
2018-07-14T05:36:05.107Z,1004.42
2018-07-14T05:37:05.282Z,1004.38
2018-07-14T05:38:05.078Z,1004.38
2018-07-14T05:39:05.076Z,1004.42
2018-07-14T05:40:05.068Z,1004.43
2018-07-14T05:41:05.065Z,1004.40
2018-07-14T05:42:05.062Z,1004.43
2018-07-14T05:43:05.059Z,1004.44
2018-07-14T05:44:05.105Z,1004.45
2018-07-14T05:45:05.051Z,1004.45
2018-07-14T05:46:05.048Z,1004.46
2018-07-14T05:47:05.045Z,1004.47
2018-07-14T05:48:05.043Z,1004.48
2018-07-14T05:49:05.042Z,1004.45
2018-07-14T05:50:05.035Z,1004.48
2018-07-14T05:51:05.083Z,1004.47
2018-07-14T05:52:05.079Z,1004.49
2018-07-14T05:53:05.024Z,1004.47
2018-07-14T05:54:05.021Z,1004.51
2018-07-14T05:55:05.023Z,1004.52
2018-07-14T05:56:05.014Z,1004.53
2018-07-14T05:57:05.011Z,1004.53
2018-07-14T05:58:05.008Z,1004.54
2018-07-14T05:59:05.005Z,1004.54
2018-07-14T06:00:05.004Z,1004.56
2018-07-14T06:01:04.998Z,1004.59
2018-07-14T06:02:04.994Z,1004.57
2018-07-14T06:03:04.994Z,1004.60
2018-07-14T06:04:04.991Z,1004.60
2018-07-14T06:05:04.986Z,1004.59
2018-07-14T06:06:04.983Z,1004.58
2018-07-14T06:07:04.980Z,1004.61
2018-07-14T06:08:04.979Z,1004.59
2018-07-14T06:09:04.973Z,1004.61
2018-07-14T06:10:04.971Z,1004.62
2018-07-14T06:11:04.970Z,1004.63
2018-07-14T06:12:04.964Z,1004.62
2018-07-14T06:13:04.965Z,1004.59
2018-07-14T06:14:04.965Z,1004.64
2018-07-14T06:15:04.957Z,1004.63
2018-07-14T06:16:04.953Z,1004.63
2018-07-14T06:17:04.951Z,1004.63
2018-07-14T06:18:04.952Z,1004.64
2018-07-14T06:19:04.946Z,1004.66
2018-07-14T06:20:04.942Z,1004.61
2018-07-14T06:21:04.940Z,1004.64
2018-07-14T06:22:04.938Z,1004.64
2018-07-14T06:23:04.935Z,1004.65
2018-07-14T06:24:04.931Z,1004.65
2018-07-14T06:25:04.928Z,1004.62
2018-07-14T06:26:04.926Z,1004.62
2018-07-14T06:27:04.926Z,1004.65
2018-07-14T06:28:04.919Z,1004.65
2018-07-14T06:29:04.920Z,1004.68
2018-07-14T06:30:04.915Z,1004.68
2018-07-14T06:31:04.919Z,1004.69
2018-07-14T06:32:04.993Z,1004.69
2018-07-14T06:33:04.911Z,1004.72
2018-07-14T06:34:04.905Z,1004.70
2018-07-14T06:35:04.906Z,1004.70
2018-07-14T06:36:04.902Z,1004.67
2018-07-14T06:37:04.897Z,1004.72
2018-07-14T06:38:04.894Z,1004.69
2018-07-14T06:39:04.894Z,1004.71
2018-07-14T06:40:04.890Z,1004.75
2018-07-14T06:41:04.887Z,1004.73
2018-07-14T06:42:05.088Z,1004.73
2018-07-14T06:43:04.886Z,1004.78
2018-07-14T06:44:04.880Z,1004.75
2018-07-14T06:45:04.879Z,1004.75
2018-07-14T06:46:04.877Z,1004.75
2018-07-14T06:47:04.875Z,1004.78
2018-07-14T06:48:04.875Z,1004.78
2018-07-14T06:49:04.875Z,1004.73
2018-07-14T06:50:04.868Z,1004.77
2018-07-14T06:51:04.866Z,1004.71
2018-07-14T06:52:04.863Z,1004.73
2018-07-14T06:53:04.869Z,1004.74
2018-07-14T06:54:04.860Z,1004.77
2018-07-14T06:55:04.863Z,1004.76
2018-07-14T06:56:04.856Z,1004.77
2018-07-14T06:57:04.854Z,1004.75
2018-07-14T06:58:04.857Z,1004.76
2018-07-14T06:59:04.854Z,1004.74
2018-07-14T07:00:04.848Z,1004.78
2018-07-14T07:01:04.847Z,1004.77
2018-07-14T07:02:04.846Z,1004.73
2018-07-14T07:03:04.844Z,1004.76
2018-07-14T07:04:04.847Z,1004.79
2018-07-14T07:05:04.840Z,1004.79
2018-07-14T07:06:04.839Z,1004.81
2018-07-14T07:07:04.837Z,1004.80
2018-07-14T07:08:04.835Z,1004.79
2018-07-14T07:09:04.833Z,1004.79
2018-07-14T07:10:04.832Z,1004.76
2018-07-14T07:11:04.832Z,1004.77
2018-07-14T07:12:04.829Z,1004.80
2018-07-14T07:13:04.831Z,1004.82
2018-07-14T07:14:04.827Z,1004.81
2018-07-14T07:15:04.832Z,1004.86
2018-07-14T07:16:04.825Z,1004.90
2018-07-14T07:17:04.827Z,1004.89
2018-07-14T07:18:04.826Z,1004.90
2018-07-14T07:19:04.825Z,1004.87
2018-07-14T07:20:04.822Z,1004.89
2018-07-14T07:21:04.823Z,1004.94
2018-07-14T07:22:04.826Z,1004.95
2018-07-14T07:23:04.825Z,1004.96
2018-07-14T07:24:04.825Z,1004.97
2018-07-14T07:25:04.829Z,1005.01
2018-07-14T07:26:05.030Z,1004.99
2018-07-14T07:27:04.829Z,1004.95
2018-07-14T07:28:04.831Z,1004.96
2018-07-14T07:29:04.833Z,1004.98
2018-07-14T07:30:04.834Z,1005.01
2018-07-14T07:31:04.837Z,1005.00
2018-07-14T07:32:04.838Z,1005.01
2018-07-14T07:33:04.843Z,1005.02
2018-07-14T07:34:04.942Z,1005.04
2018-07-14T07:35:04.848Z,1005.08
2018-07-14T07:36:04.851Z,1005.10
2018-07-14T07:37:04.855Z,1005.11
2018-07-14T07:38:04.866Z,1005.11
2018-07-14T07:39:04.863Z,1005.08
2018-07-14T07:40:04.868Z,1005.03
2018-07-14T07:41:04.879Z,1005.01
2018-07-14T07:42:05.081Z,1005.05
2018-07-14T07:43:04.889Z,1005.03
2018-07-14T07:44:04.894Z,1005.07
2018-07-14T07:45:04.898Z,1005.06
2018-07-14T07:46:04.905Z,1005.09
2018-07-14T07:47:04.912Z,1005.11
2018-07-14T07:48:04.918Z,1005.13
2018-07-14T07:49:04.928Z,1005.17
2018-07-14T07:50:04.937Z,1005.16
2018-07-14T07:51:04.942Z,1005.19
2018-07-14T07:52:04.949Z,1005.17
2018-07-14T07:53:04.957Z,1005.12
2018-07-14T07:54:04.968Z,1005.16
2018-07-14T07:55:04.979Z,1005.13
2018-07-14T07:56:04.983Z,1005.15
2018-07-14T07:57:04.995Z,1005.12
2018-07-14T07:58:05.002Z,1005.12
2018-07-14T07:59:05.018Z,1005.13
2018-07-14T08:00:05.018Z,1005.11
2018-07-14T08:01:05.027Z,1005.10
2018-07-14T08:02:05.038Z,1005.14
2018-07-14T08:03:05.050Z,1005.12
2018-07-14T08:04:05.058Z,1005.15
2018-07-14T08:05:05.073Z,1005.13
2018-07-14T08:06:05.080Z,1005.13
2018-07-14T08:07:05.090Z,1005.18
2018-07-14T08:08:05.098Z,1005.20
2018-07-14T08:09:05.105Z,1005.22
2018-07-14T08:10:05.117Z,1005.19
2018-07-14T08:11:05.126Z,1005.24
2018-07-14T08:12:05.137Z,1005.24
2018-07-14T08:13:05.146Z,1005.22
2018-07-14T08:14:05.157Z,1005.25
2018-07-14T08:15:05.171Z,1005.27
2018-07-14T08:16:05.246Z,1005.24
2018-07-14T08:17:05.193Z,1005.24
2018-07-14T08:18:05.200Z,1005.29
2018-07-14T08:19:05.211Z,1005.28
2018-07-14T08:20:05.222Z,1005.31
2018-07-14T08:21:05.233Z,1005.30
2018-07-14T08:22:05.243Z,1005.22
2018-07-14T08:23:05.305Z,1005.26
2018-07-14T08:24:05.269Z,1005.27
2018-07-14T08:25:05.276Z,1005.26
2018-07-14T08:26:05.287Z,1005.24
2018-07-14T08:27:05.299Z,1005.25
2018-07-14T08:28:05.309Z,1005.20
2018-07-14T08:29:05.320Z,1005.21
2018-07-14T08:30:05.332Z,1005.18
2018-07-14T08:31:05.344Z,1005.17
2018-07-14T08:32:05.354Z,1005.17
2018-07-14T08:33:05.371Z,1005.16
2018-07-14T08:34:05.380Z,1005.21
2018-07-14T08:35:05.396Z,1005.15
2018-07-14T08:36:05.403Z,1005.13
2018-07-14T08:37:05.415Z,1005.18
2018-07-14T08:38:05.484Z,1005.17
2018-07-14T08:39:05.440Z,1005.20
2018-07-14T08:40:05.455Z,1005.15
2018-07-14T08:41:05.463Z,1005.14
2018-07-14T08:42:05.480Z,1005.18
2018-07-14T08:43:05.489Z,1005.16
2018-07-14T08:44:05.505Z,1005.16
2018-07-14T08:45:05.512Z,1005.16
2018-07-14T08:46:05.525Z,1005.14
2018-07-14T08:47:05.541Z,1005.15
2018-07-14T08:48:05.550Z,1005.18
2018-07-14T08:49:05.569Z,1005.08
2018-07-14T08:50:05.574Z,1005.13
2018-07-14T08:51:05.637Z,1005.11
2018-07-14T08:52:05.599Z,1005.12
2018-07-14T08:53:05.612Z,1005.15
2018-07-14T08:54:05.625Z,1005.17
2018-07-14T08:55:05.640Z,1005.17
2018-07-14T08:56:05.853Z,1005.18
2018-07-14T08:57:05.665Z,1005.21
2018-07-14T08:58:05.710Z,1005.15
2018-07-14T08:59:05.691Z,1005.19
2018-07-14T09:00:05.704Z,1005.15
2018-07-14T09:01:05.717Z,1005.16
2018-07-14T09:02:05.735Z,1005.18
2018-07-14T09:03:05.748Z,1005.17
2018-07-14T09:04:05.760Z,1005.18
2018-07-14T09:05:05.774Z,1005.18
2018-07-14T09:06:05.785Z,1005.13
2018-07-14T09:07:05.799Z,1005.11
2018-07-14T09:08:05.811Z,1005.14
2018-07-14T09:09:05.826Z,1005.10
2018-07-14T09:10:05.843Z,1005.09
2018-07-14T09:11:05.854Z,1005.09
2018-07-14T09:12:05.867Z,1005.03
2018-07-14T09:13:05.882Z,1005.06
2018-07-14T09:14:05.894Z,1005.05
2018-07-14T09:15:05.912Z,1005.05
2018-07-14T09:16:05.924Z,1005.08
2018-07-14T09:17:05.936Z,1005.06
2018-07-14T09:18:05.957Z,1005.00
2018-07-14T09:19:05.968Z,1005.03
2018-07-14T09:20:05.979Z,1004.97
2018-07-14T09:21:05.999Z,1004.99
2018-07-14T09:22:06.009Z,1005.00
2018-07-14T09:23:06.024Z,1005.02
2018-07-14T09:24:06.043Z,1005.02
2018-07-14T09:25:06.053Z,1005.06
2018-07-14T09:26:06.104Z,1005.06
2018-07-14T09:27:06.289Z,1005.02
2018-07-14T09:28:06.102Z,1005.07
2018-07-14T09:29:06.315Z,1005.07
2018-07-14T09:30:06.131Z,1005.05
2018-07-14T09:31:06.144Z,1005.06
2018-07-14T09:32:06.162Z,1005.01
2018-07-14T09:33:06.177Z,1005.08
2018-07-14T09:34:06.192Z,1005.06
2018-07-14T09:35:06.204Z,1005.02
2018-07-14T09:36:06.217Z,1005.04
2018-07-14T09:37:06.232Z,1005.04
2018-07-14T09:38:06.325Z,1005.05
2018-07-14T09:39:06.263Z,1005.01
2018-07-14T09:40:06.284Z,1005.00
2018-07-14T09:41:06.298Z,1004.98
2018-07-14T09:42:06.307Z,1004.97
2018-07-14T09:43:06.346Z,1004.97
2018-07-14T09:44:06.392Z,1004.96
2018-07-14T09:45:06.356Z,1004.98
2018-07-14T09:46:06.370Z,1004.97
2018-07-14T09:47:06.382Z,1004.93
2018-07-14T09:48:06.396Z,1004.99
2018-07-14T09:49:06.417Z,1005.03
2018-07-14T09:50:06.426Z,1004.98
2018-07-14T09:51:06.442Z,1004.98
2018-07-14T09:52:06.455Z,1005.02
2018-07-14T09:53:06.470Z,1004.96
2018-07-14T09:54:06.485Z,1004.95
2018-07-14T09:55:06.558Z,1004.95
2018-07-14T09:56:06.515Z,1004.95
2018-07-14T09:57:06.534Z,1004.97
2018-07-14T09:58:06.550Z,1004.93
2018-07-14T09:59:06.561Z,1004.91
2018-07-14T10:00:06.576Z,1004.90
2018-07-14T10:01:06.591Z,1004.89
2018-07-14T10:02:06.608Z,1004.88
2018-07-14T10:03:06.632Z,1004.86
2018-07-14T10:04:06.642Z,1004.85
2018-07-14T10:05:06.655Z,1004.84
2018-07-14T10:06:06.725Z,1004.84
2018-07-14T10:07:06.688Z,1004.84
2018-07-14T10:08:06.703Z,1004.85
2018-07-14T10:09:06.724Z,1004.81
2018-07-14T10:10:06.849Z,1004.83
2018-07-14T10:11:06.753Z,1004.79
2018-07-14T10:12:06.772Z,1004.80
2018-07-14T10:13:06.823Z,1004.77
2018-07-14T10:14:06.804Z,1004.76
2018-07-14T10:15:06.821Z,1004.77
2018-07-14T10:16:06.840Z,1004.80
2018-07-14T10:17:06.853Z,1004.75
2018-07-14T10:18:06.870Z,1004.76
2018-07-14T10:19:06.888Z,1004.77
2018-07-14T10:20:06.904Z,1004.77
2018-07-14T10:21:06.921Z,1004.77
2018-07-14T10:22:06.943Z,1004.74
2018-07-14T10:23:06.955Z,1004.75
2018-07-14T10:24:06.971Z,1004.76
2018-07-14T10:25:07.073Z,1004.75
2018-07-14T10:26:07.008Z,1004.75
2018-07-14T10:27:07.023Z,1004.68
2018-07-14T10:28:07.043Z,1004.66
2018-07-14T10:29:07.116Z,1004.68
2018-07-14T10:30:07.078Z,1004.71
2018-07-14T10:31:07.099Z,1004.71
2018-07-14T10:32:07.110Z,1004.72
2018-07-14T10:33:07.129Z,1004.68
2018-07-14T10:34:07.205Z,1004.64
2018-07-14T10:35:07.167Z,1004.69
2018-07-14T10:36:07.185Z,1004.67
2018-07-14T10:37:07.199Z,1004.67
2018-07-14T10:38:07.218Z,1004.65
2018-07-14T10:39:07.236Z,1004.66
2018-07-14T10:40:07.268Z,1004.65
2018-07-14T10:41:07.274Z,1004.63
2018-07-14T10:42:07.327Z,1004.68
2018-07-14T10:43:07.310Z,1004.67
2018-07-14T10:44:07.323Z,1004.66
2018-07-14T10:45:07.340Z,1004.62
2018-07-14T10:46:07.358Z,1004.64
2018-07-14T10:47:07.376Z,1004.63
2018-07-14T10:48:07.393Z,1004.62
2018-07-14T10:49:07.409Z,1004.58
2018-07-14T10:50:07.431Z,1004.57
2018-07-14T10:51:07.445Z,1004.56
2018-07-14T10:52:07.466Z,1004.58
2018-07-14T10:53:07.481Z,1004.61
2018-07-14T10:54:07.497Z,1004.58
2018-07-14T10:55:07.568Z,1004.56
2018-07-14T10:56:07.534Z,1004.54
2018-07-14T10:57:07.550Z,1004.54
2018-07-14T10:58:07.600Z,1004.58
2018-07-14T10:59:07.584Z,1004.56
2018-07-14T11:00:07.601Z,1004.51
2018-07-14T11:01:07.619Z,1004.54
2018-07-14T11:02:07.636Z,1004.45
2018-07-14T11:03:07.654Z,1004.45
2018-07-14T11:04:07.673Z,1004.51
2018-07-14T11:05:07.690Z,1004.46
2018-07-14T11:06:07.707Z,1004.42
2018-07-14T11:07:07.728Z,1004.40
2018-07-14T11:08:07.741Z,1004.43
2018-07-14T11:09:07.758Z,1004.41
2018-07-14T11:10:07.776Z,1004.38
2018-07-14T11:11:07.794Z,1004.39
2018-07-14T11:12:07.831Z,1004.39
2018-07-14T11:13:07.831Z,1004.41
2018-07-14T11:14:07.847Z,1004.39
2018-07-14T11:15:07.865Z,1004.39
2018-07-14T11:16:07.884Z,1004.37
2018-07-14T11:17:07.899Z,1004.37
2018-07-14T11:18:07.916Z,1004.36
2018-07-14T11:19:07.936Z,1004.32
2018-07-14T11:20:07.953Z,1004.32
2018-07-14T11:21:07.969Z,1004.31
2018-07-14T11:22:07.985Z,1004.26
2018-07-14T11:23:08.006Z,1004.27
2018-07-14T11:24:08.022Z,1004.22
2018-07-14T11:25:08.044Z,1004.25
2018-07-14T11:26:08.054Z,1004.27
2018-07-14T11:27:08.071Z,1004.21
2018-07-14T11:28:08.090Z,1004.23
2018-07-14T11:29:08.104Z,1004.22
2018-07-14T11:30:08.137Z,1004.24
2018-07-14T11:31:08.138Z,1004.22
2018-07-14T11:32:08.155Z,1004.20
2018-07-14T11:33:08.179Z,1004.27
2018-07-14T11:34:08.189Z,1004.19
2018-07-14T11:35:08.205Z,1004.24
2018-07-14T11:36:08.222Z,1004.20
2018-07-14T11:37:08.243Z,1004.17
2018-07-14T11:38:08.256Z,1004.16
2018-07-14T11:39:08.274Z,1004.19
2018-07-14T11:40:08.290Z,1004.16
2018-07-14T11:41:08.513Z,1004.13
2018-07-14T11:42:08.342Z,1004.14
2018-07-14T11:43:08.343Z,1004.14
2018-07-14T11:44:08.359Z,1004.10
2018-07-14T11:45:08.377Z,1004.10
2018-07-14T11:46:08.394Z,1004.05
2018-07-14T11:47:08.410Z,1004.03
2018-07-14T11:48:08.425Z,1004.06
2018-07-14T11:49:08.441Z,1004.07
2018-07-14T11:50:08.461Z,1004.16
2018-07-14T11:51:08.471Z,1004.13
2018-07-14T11:52:08.484Z,1004.12
2018-07-14T11:53:08.502Z,1004.08
2018-07-14T11:54:08.522Z,1004.07
2018-07-14T11:55:08.532Z,1004.05
2018-07-14T11:56:08.544Z,1004.06
2018-07-14T11:57:08.563Z,1004.02
2018-07-14T11:58:08.577Z,1004.05
2018-07-14T11:59:08.591Z,1004.02
2018-07-14T12:00:08.607Z,1004.03
2018-07-14T12:01:08.625Z,1004.00
2018-07-14T12:02:08.669Z,1004.00
2018-07-14T12:03:08.657Z,1004.00
2018-07-14T12:04:08.669Z,1004.05
2018-07-14T12:05:08.685Z,1004.06